Torino — 2BZH7 — position and weather

sailwx.info

Track history (hours):
 
Tides and Currents Weather Stations Pressure Air Temp Water Temp Dewpoint Dewpoint Depression Visibility Wind Speed Wind Dir Waves Ship Positions

Torino

Last reported at 2018-Apr-21 14:14 UTC. Time now 2018-Apr-24 12:40 UTC.
Position N 36°17' E 015°11'.

Length 200 m; draft 10.5 m.

Type: Cargo ship. MMSI: 235070707.

Date/timePositionNaut miles runAvg speedWind from/ knotsBaromVisibWave heightAir tempDewpointWater temp
2018-Apr-21 14:14N 36°17' E 015°11'312.6
2018-Apr-21 13:59N 36°19' E 015°08'714.6
2018-Apr-21 13:29N 36°21' E 014°59'611.9
2018-Apr-21 12:57N 36°23' E 014°52'715.1
2018-Apr-21 12:30N 36°24' E 014°44'815.6
2018-Apr-21 11:59N 36°27' E 014°34'816.2
2018-Apr-21 11:28N 36°29' E 014°24'4 8.2
2018-Apr-21 11:00N 36°31' E 014°20'713.4
2018-Apr-21 10:30N 36°32' E 014°12'713.4
2018-Apr-21 10:00N 36°35' E 014°04'713.4
2018-Apr-21 09:30N 36°37' E 013°56'713.6
2018-Apr-21 09:00N 36°39' E 013°48'815.7
2018-Apr-21 08:31N 36°42' E 013°39'611.2
2018-Apr-21 08:00N 36°44' E 013°32'815.8
2018-Apr-21 07:29N 36°46' E 013°22'715.2
2018-Apr-21 07:00N 36°48' E 013°14'714.4
2018-Apr-21 06:30N 36°50' E 013°05'713.3
2018-Apr-21 06:00N 36°52' E 012°57'815.2
2018-Apr-21 05:30N 36°54' E 012°48'916.0
2018-Apr-21 04:58N 36°57' E 012°38'816.4
2018-Apr-21 04:29N 36°60' E 012°28'714.4
2018-Apr-21 04:00N 37°02' E 012°20'2016.1
2018-Apr-21 02:44N 37°08' E 011°56'54514.4
2018-Apr-19 13:00N 36°44' E 000°35'911.5
2018-Apr-19 12:15N 36°42' E 000°25'311.5
2018-Apr-19 11:58N 36°42' E 000°21'511.5
2018-Apr-19 11:30N 36°41' E 000°14'26715.0
2018-Apr-18 17:45N 35°60' W 005°13'415.3
2018-Apr-18 17:31N 35°59' W 005°18'714.9
2018-Apr-18 17:00N 35°58' W 005°27'16914.1
2018-Apr-18 05:00N 36°28' W 008°54'714.3
2018-Apr-18 04:30N 36°30' W 009°02'814.6
2018-Apr-18 03:59N 36°32' W 009°11'914.0
2018-Apr-18 03:22N 36°36' W 009°21'514.5
2018-Apr-18 03:00N 36°39' W 009°25'714.1
2018-Apr-18 02:31N 36°45' W 009°31'713.8
2018-Apr-18 02:01N 36°51' W 009°34'815.0
2018-Apr-18 01:30N 36°59' W 009°35'815.0
2018-Apr-18 01:00N 37°06' W 009°37'714.9
2018-Apr-18 00:30N 37°13' W 009°40'715.0
2018-Apr-18 00:01N 37°21' W 009°42'815.1
2018-Apr-17 23:30N 37°28' W 009°44'715.0
2018-Apr-17 23:01N 37°35' W 009°47'815.0
2018-Apr-17 22:30N 37°42' W 009°49'714.9
2018-Apr-17 22:01N 37°50' W 009°51'815.1
2018-Apr-17 21:31N 37°57' W 009°53'815.0
2018-Apr-17 21:00N 38°05' W 009°55'714.6
2018-Apr-17 20:30N 38°11' W 009°57'714.7
2018-Apr-17 20:01N 38°19' W 010°00'714.9
2018-Apr-17 19:31N 38°26' W 010°02'815.2
2018-Apr-17 19:01N 38°33' W 010°04'815.4
2018-Apr-17 18:31N 38°41' W 010°05'815.2
2018-Apr-17 18:00N 38°48' W 010°06'815.1
2018-Apr-17 17:31N 38°56' W 010°05'714.5
2018-Apr-17 17:00N 39°03' W 010°05'714.3
2018-Apr-17 16:30N 39°11' W 010°05'714.5
2018-Apr-17 16:00N 39°18' W 010°06'714.5
2018-Apr-17 15:30N 39°25' W 010°06'714.8
2018-Apr-17 15:00N 39°32' W 010°06'1114.7
2018-Apr-17 14:17N 39°43' W 010°06'66613.2
2018-Apr-15 11:57N 49°47' W 003°31'816.9
2018-Apr-15 11:30N 49°51' W 003°21'816.4
2018-Apr-15 11:00N 49°55' W 003°10'815.9
2018-Apr-15 10:31N 49°57' W 002°58'815.4
2018-Apr-15 10:00N 49°60' W 002°47'714.6
2018-Apr-15 09:30N 50°03' W 002°36'713.9
2018-Apr-15 09:00N 50°04' W 002°26'2012.3
2018-Apr-15 07:20N 50°10' W 001°55'411.6
2018-Apr-15 07:00N 50°11' W 001°49'611.8
2018-Apr-15 06:30N 50°13' W 001°40'612.5
2018-Apr-15 06:00N 50°15' W 001°31'713.2
2018-Apr-15 05:30N 50°17' W 001°21'714.1
2018-Apr-15 05:00N 50°19' W 001°11'815.4
2018-Apr-15 04:31N 50°21' W 000°59'816.4
2018-Apr-15 04:00N 50°23' W 000°47'917.0
2018-Apr-15 03:28N 50°25' W 000°33'817.1
2018-Apr-15 03:01N 50°27' W 000°21'917.0
2018-Apr-15 02:30N 50°30' W 000°08'916.9
2018-Apr-15 02:00N 50°33' E 000°05'816.8
2018-Apr-15 01:31N 50°35' E 000°17'816.5
2018-Apr-15 01:00N 50°37' E 000°30'816.0
2018-Apr-15 00:30N 50°41' E 000°40'815.8
2018-Apr-15 00:01N 50°46' E 000°51'815.0
2018-Apr-14 23:31N 50°50' E 001°00'714.5
2018-Apr-14 23:00N 50°54' E 001°10'813.7
2018-Apr-14 22:25N 50°59' E 001°20'614.1
2018-Apr-14 22:00N 51°03' E 001°26'815.1
2018-Apr-14 21:30N 51°08' E 001°36'815.7
2018-Apr-14 21:00N 51°13' E 001°46'916.9
2018-Apr-14 20:30N 51°20' E 001°53'815.3
2018-Apr-14 20:01N 51°25' E 002°03'815.7
2018-Apr-14 19:30N 51°21' E 002°14'916.9
2018-Apr-14 19:00N 51°22' E 002°28'817.1
2018-Apr-14 18:30N 51°22' E 002°42'713.6
2018-Apr-14 18:00N 51°22' E 002°52'816.0
2018-Apr-14 17:30N 51°24' E 003°05'816.8
2018-Apr-14 17:00N 51°24' E 003°18'917.1
2018-Apr-14 16:30N 51°25' E 003°32'612.1
2018-Apr-14 16:00N 51°26' E 003°42'714.1
2018-Apr-14 15:30N 51°21' E 003°50'713.7
2018-Apr-14 15:00N 51°25' E 003°58'5 9.1
2018-Apr-14 14:30N 51°23' E 004°04'611.4
2018-Apr-14 14:00N 51°24' E 004°13'5 9.9
2018-Apr-14 13:30N 51°19' E 004°16'3 5.3
2018-Apr-14 13:00N 51°17' E 004°15'0 0.1
2018-Apr-14 12:29N 51°17' E 004°15'0 0.2
2018-Apr-14 11:59N 51°17' E 004°15'1 2.2
2018-Apr-14 11:29N 51°16' E 004°13'0 0.0
2018-Apr-14 10:59N 51°16' E 004°13'0 0.0
2018-Apr-14 10:26N 51°16' E 004°13'0 0.0
2018-Apr-14 09:59N 51°16' E 004°13'0 0.0
2018-Apr-14 09:29N 51°16' E 004°13'0 0.0
2018-Apr-14 08:56N 51°16' E 004°13'0 0.0
2018-Apr-14 08:29N 51°16' E 004°13'0 0.0
2018-Apr-14 07:59N 51°16' E 004°13'0 0.0
2018-Apr-14 07:29N 51°16' E 004°13'0 0.0
2018-Apr-14 06:59N 51°16' E 004°13'0 0.0
2018-Apr-14 06:29N 51°16' E 004°13'0 0.0
2018-Apr-14 05:59N 51°16' E 004°13'0 0.0
2018-Apr-14 05:26N 51°16' E 004°13'0 0.0
2018-Apr-14 04:59N 51°16' E 004°13'0 0.0
2018-Apr-14 04:29N 51°16' E 004°13'0 0.0
2018-Apr-14 03:59N 51°16' E 004°13'0 0.0
2018-Apr-14 03:29N 51°16' E 004°13'0 0.0
2018-Apr-14 02:59N 51°16' E 004°13'0 0.0
2018-Apr-14 02:29N 51°16' E 004°13'0 0.0
2018-Apr-14 01:56N 51°16' E 004°13'0 0.0
2018-Apr-14 01:29N 51°16' E 004°13'0 0.0
2018-Apr-14 00:59N 51°16' E 004°13'0 0.0
2018-Apr-14 00:26N 51°16' E 004°13'0 0.0
2018-Apr-13 23:59N 51°16' E 004°13'0 0.0
2018-Apr-13 23:29N 51°16' E 004°13'0 0.0
2018-Apr-13 22:59N 51°16' E 004°13'0 0.0
2018-Apr-13 22:29N 51°16' E 004°13'0 0.0
2018-Apr-13 21:59N 51°16' E 004°13'0 0.0
2018-Apr-13 21:29N 51°16' E 004°13'0 0.0
2018-Apr-13 20:59N 51°16' E 004°13'0 0.0
2018-Apr-13 20:26N 51°16' E 004°13'0 0.0
2018-Apr-13 19:59N 51°16' E 004°13'0 0.0
2018-Apr-13 19:29N 51°16' E 004°13'0 0.0
2018-Apr-13 18:59N 51°16' E 004°13'0 0.0
2018-Apr-13 18:29N 51°16' E 004°13'0 0.0
2018-Apr-13 17:59N 51°16' E 004°13'0 0.0
2018-Apr-13 17:29N 51°16' E 004°13'0 0.0
2018-Apr-13 16:59N 51°16' E 004°13'0 0.0
2018-Apr-13 16:26N 51°16' E 004°13'0 0.0
2018-Apr-13 15:59N 51°16' E 004°13'0 0.0
2018-Apr-13 15:29N 51°16' E 004°13'0 0.0
2018-Apr-13 14:56N 51°16' E 004°13'0 0.0
2018-Apr-13 14:26N 51°16' E 004°13'0 0.0
2018-Apr-13 13:59N 51°16' E 004°13'0 0.0
2018-Apr-13 13:29N 51°16' E 004°13'0 0.0
2018-Apr-13 12:59N 51°16' E 004°13'0 0.0
2018-Apr-13 12:29N 51°16' E 004°13'0 0.0
2018-Apr-13 11:59N 51°16' E 004°13'0 0.0
2018-Apr-13 11:26N 51°16' E 004°13'0 0.0
2018-Apr-13 10:59N 51°16' E 004°13'0 0.0
2018-Apr-13 10:26N 51°16' E 004°13'0 0.0
2018-Apr-13 09:59N 51°16' E 004°13'0 0.0
2018-Apr-13 09:29N 51°16' E 004°13'0 0.0
2018-Apr-13 08:59N 51°16' E 004°13'0 0.0
2018-Apr-13 08:29N 51°16' E 004°13'0 0.0
2018-Apr-13 07:56N 51°16' E 004°13'0 0.0
2018-Apr-13 07:29N 51°16' E 004°13'0 0.0
2018-Apr-13 06:56N 51°16' E 004°13'0 0.0
2018-Apr-13 06:29N 51°16' E 004°13'0 0.0
2018-Apr-13 05:59N 51°16' E 004°13'0 0.0
2018-Apr-13 05:29N 51°16' E 004°13'0 0.0
2018-Apr-13 04:59N 51°16' E 004°13'0 0.0
2018-Apr-13 04:29N 51°16' E 004°13'0 0.0
2018-Apr-13 03:59N 51°16' E 004°13'0 0.0
2018-Apr-13 03:26N 51°16' E 004°13'0 0.0
2018-Apr-13 02:59N 51°16' E 004°13'0 0.0
2018-Apr-13 02:29N 51°16' E 004°13'0 0.0
2018-Apr-13 01:59N 51°16' E 004°13'0 0.0
2018-Apr-13 01:29N 51°16' E 004°13'0 0.0
2018-Apr-13 00:59N 51°16' E 004°13'0 0.0
2018-Apr-13 00:29N 51°16' E 004°13'0 0.0
2018-Apr-12 23:59N 51°16' E 004°13'0 0.0
2018-Apr-12 23:29N 51°16' E 004°13'0 0.0
2018-Apr-12 22:59N 51°16' E 004°13'0 0.0
2018-Apr-12 22:29N 51°16' E 004°13'0 0.0
2018-Apr-12 21:59N 51°16' E 004°13'0 0.0
2018-Apr-12 21:29N 51°16' E 004°13'0 0.0
2018-Apr-12 20:59N 51°16' E 004°13'0 0.0
2018-Apr-12 20:29N 51°16' E 004°13'0 0.0
2018-Apr-12 19:59N 51°16' E 004°13'0 0.0
2018-Apr-12 19:26N 51°16' E 004°13'0 0.0
2018-Apr-12 18:59N 51°16' E 004°13'0 0.0
2018-Apr-12 18:29N 51°16' E 004°13'0 0.0
2018-Apr-12 17:59N 51°16' E 004°13'0 0.0
2018-Apr-12 17:29N 51°16' E 004°13'0 0.0
2018-Apr-12 16:59N 51°16' E 004°13'0 0.0
2018-Apr-12 16:29N 51°16' E 004°13'0 0.0
2018-Apr-12 15:59N 51°16' E 004°13'0 0.0
2018-Apr-12 15:29N 51°16' E 004°13'0 0.0
2018-Apr-12 14:56N 51°16' E 004°13'0 0.0
2018-Apr-12 14:29N 51°16' E 004°13'0 0.0
2018-Apr-12 13:59N 51°16' E 004°13'0 0.0
2018-Apr-12 13:29N 51°16' E 004°13'0 0.0
2018-Apr-12 12:59N 51°16' E 004°13'0 0.0
2018-Apr-12 12:29N 51°16' E 004°13'0 0.0
2018-Apr-12 11:59N 51°16' E 004°13'0 0.0
2018-Apr-12 11:29N 51°16' E 004°13'0 0.0
2018-Apr-12 10:59N 51°16' E 004°13'0 0.0
2018-Apr-12 10:26N 51°16' E 004°13'0 0.0
2018-Apr-12 09:59N 51°16' E 004°13'0 0.0
2018-Apr-12 09:29N 51°16' E 004°13'0 0.0
2018-Apr-12 08:59N 51°16' E 004°13'0 0.0
2018-Apr-12 08:29N 51°16' E 004°13'0 0.0
2018-Apr-12 07:59N 51°16' E 004°13'0 0.0
2018-Apr-12 07:29N 51°16' E 004°13'0 0.0
2018-Apr-12 06:59N 51°16' E 004°13'0 0.0
2018-Apr-12 06:29N 51°16' E 004°13'0 0.0
2018-Apr-12 05:59N 51°16' E 004°13'0 0.0
2018-Apr-12 05:30N 51°16' E 004°13'1 1.6
2018-Apr-12 05:00N 51°16' E 004°14'0 0.6
2018-Apr-12 04:30N 51°17' E 004°15'0 0.0
2018-Apr-12 04:00N 51°17' E 004°15'0 0.0
2018-Apr-12 03:30N 51°17' E 004°15'0 0.7
2018-Apr-12 03:00N 51°17' E 004°15'3 5.6
2018-Apr-12 02:30N 51°20' E 004°16'510.3
2018-Apr-12 02:00N 51°24' E 004°11'511.0
2018-Apr-12 01:30N 51°23' E 004°02'3 6.5
2018-Apr-12 01:00N 51°24' E 003°57'612.2
2018-Apr-12 00:31N 51°21' E 003°49'612.0
2018-Apr-12 00:00N 51°25' E 003°42'5 8.9
2018-Apr-11 23:30N 51°26' E 003°35'714.3
2018-Apr-11 23:01N 51°25' E 003°24'815.9
2018-Apr-11 22:30N 51°24' E 003°11'714.5
2018-Apr-11 22:01N 51°26' E 002°60'713.4
2018-Apr-11 21:30N 51°31' E 003°05'714.2
2018-Apr-11 21:00N 51°38' E 003°11'713.4
2018-Apr-11 20:30N 51°44' E 003°13'6 6.2
2018-Apr-11 19:33N 51°50' E 003°12'0 1.7
2018-Apr-11 19:31N 51°50' E 003°12'1 1.3
2018-Apr-11 18:51N 51°50' E 003°13'0 0.4
2018-Apr-11 18:30N 51°50' E 003°13'1 1.3
2018-Apr-11 17:53N 51°50' E 003°13'1 2.2
2018-Apr-11 17:15N 51°51' E 003°14'2 6.4
2018-Apr-11 17:00N 51°52' E 003°16'3 6.5
2018-Apr-11 16:29N 51°55' E 003°18'4 6.3
2018-Apr-11 15:50N 51°59' E 003°20'7 7.2
2018-Apr-11 14:49N 52°06' E 003°22'  
Track history (hours):
 
Tides and Currents Weather Stations Pressure Air Temp Water Temp Dewpoint Dewpoint Depression Visibility Wind Speed Wind Dir Waves Ship Positions

Torino

Last reported at 2018-Apr-21 14:14 UTC. Time now 2018-Apr-24 12:40 UTC.
Position N 36°17' E 015°11'.

Length 200 m; draft 10.5 m.

Type: Cargo ship. MMSI: 235070707.

Date/timePositionNaut miles runAvg speedWind from/ knotsBaromVisibWave heightAir tempDewpointWater temp
2018-Apr-21 14:14N 36°17' E 015°11'312.6
2018-Apr-21 13:59N 36°19' E 015°08'714.6
2018-Apr-21 13:29N 36°21' E 014°59'611.9
2018-Apr-21 12:57N 36°23' E 014°52'715.1
2018-Apr-21 12:30N 36°24' E 014°44'815.6
2018-Apr-21 11:59N 36°27' E 014°34'816.2
2018-Apr-21 11:28N 36°29' E 014°24'4 8.2
2018-Apr-21 11:00N 36°31' E 014°20'713.4
2018-Apr-21 10:30N 36°32' E 014°12'713.4
2018-Apr-21 10:00N 36°35' E 014°04'713.4
2018-Apr-21 09:30N 36°37' E 013°56'713.6
2018-Apr-21 09:00N 36°39' E 013°48'815.7
2018-Apr-21 08:31N 36°42' E 013°39'611.2
2018-Apr-21 08:00N 36°44' E 013°32'815.8
2018-Apr-21 07:29N 36°46' E 013°22'715.2
2018-Apr-21 07:00N 36°48' E 013°14'714.4
2018-Apr-21 06:30N 36°50' E 013°05'713.3
2018-Apr-21 06:00N 36°52' E 012°57'815.2
2018-Apr-21 05:30N 36°54' E 012°48'916.0
2018-Apr-21 04:58N 36°57' E 012°38'816.4
2018-Apr-21 04:29N 36°60' E 012°28'714.4
2018-Apr-21 04:00N 37°02' E 012°20'2016.1
2018-Apr-21 02:44N 37°08' E 011°56'54514.4
2018-Apr-19 13:00N 36°44' E 000°35'911.5
2018-Apr-19 12:15N 36°42' E 000°25'311.5
2018-Apr-19 11:58N 36°42' E 000°21'511.5
2018-Apr-19 11:30N 36°41' E 000°14'26715.0
2018-Apr-18 17:45N 35°60' W 005°13'415.3
2018-Apr-18 17:31N 35°59' W 005°18'714.9
2018-Apr-18 17:00N 35°58' W 005°27'16914.1
2018-Apr-18 05:00N 36°28' W 008°54'714.3
2018-Apr-18 04:30N 36°30' W 009°02'814.6
2018-Apr-18 03:59N 36°32' W 009°11'914.0
2018-Apr-18 03:22N 36°36' W 009°21'514.5
2018-Apr-18 03:00N 36°39' W 009°25'714.1
2018-Apr-18 02:31N 36°45' W 009°31'713.8
2018-Apr-18 02:01N 36°51' W 009°34'815.0
2018-Apr-18 01:30N 36°59' W 009°35'815.0
2018-Apr-18 01:00N 37°06' W 009°37'714.9
2018-Apr-18 00:30N 37°13' W 009°40'715.0
2018-Apr-18 00:01N 37°21' W 009°42'815.1
2018-Apr-17 23:30N 37°28' W 009°44'715.0
2018-Apr-17 23:01N 37°35' W 009°47'815.0
2018-Apr-17 22:30N 37°42' W 009°49'714.9
2018-Apr-17 22:01N 37°50' W 009°51'815.1
2018-Apr-17 21:31N 37°57' W 009°53'815.0
2018-Apr-17 21:00N 38°05' W 009°55'714.6
2018-Apr-17 20:30N 38°11' W 009°57'714.7
2018-Apr-17 20:01N 38°19' W 010°00'714.9
2018-Apr-17 19:31N 38°26' W 010°02'815.2
2018-Apr-17 19:01N 38°33' W 010°04'815.4
2018-Apr-17 18:31N 38°41' W 010°05'815.2
2018-Apr-17 18:00N 38°48' W 010°06'815.1
2018-Apr-17 17:31N 38°56' W 010°05'714.5
2018-Apr-17 17:00N 39°03' W 010°05'714.3
2018-Apr-17 16:30N 39°11' W 010°05'714.5
2018-Apr-17 16:00N 39°18' W 010°06'714.5
2018-Apr-17 15:30N 39°25' W 010°06'714.8
2018-Apr-17 15:00N 39°32' W 010°06'1114.7
2018-Apr-17 14:17N 39°43' W 010°06'66613.2
2018-Apr-15 11:57N 49°47' W 003°31'816.9
2018-Apr-15 11:30N 49°51' W 003°21'816.4
2018-Apr-15 11:00N 49°55' W 003°10'815.9
2018-Apr-15 10:31N 49°57' W 002°58'815.4
2018-Apr-15 10:00N 49°60' W 002°47'714.6
2018-Apr-15 09:30N 50°03' W 002°36'713.9
2018-Apr-15 09:00N 50°04' W 002°26'2012.3
2018-Apr-15 07:20N 50°10' W 001°55'411.6
2018-Apr-15 07:00N 50°11' W 001°49'611.8
2018-Apr-15 06:30N 50°13' W 001°40'612.5
2018-Apr-15 06:00N 50°15' W 001°31'713.2
2018-Apr-15 05:30N 50°17' W 001°21'714.1
2018-Apr-15 05:00N 50°19' W 001°11'815.4
2018-Apr-15 04:31N 50°21' W 000°59'816.4
2018-Apr-15 04:00N 50°23' W 000°47'917.0
2018-Apr-15 03:28N 50°25' W 000°33'817.1
2018-Apr-15 03:01N 50°27' W 000°21'917.0
2018-Apr-15 02:30N 50°30' W 000°08'916.9
2018-Apr-15 02:00N 50°33' E 000°05'816.8
2018-Apr-15 01:31N 50°35' E 000°17'816.5
2018-Apr-15 01:00N 50°37' E 000°30'816.0
2018-Apr-15 00:30N 50°41' E 000°40'815.8
2018-Apr-15 00:01N 50°46' E 000°51'815.0
2018-Apr-14 23:31N 50°50' E 001°00'714.5
2018-Apr-14 23:00N 50°54' E 001°10'813.7
2018-Apr-14 22:25N 50°59' E 001°20'614.1
2018-Apr-14 22:00N 51°03' E 001°26'815.1
2018-Apr-14 21:30N 51°08' E 001°36'815.7
2018-Apr-14 21:00N 51°13' E 001°46'916.9
2018-Apr-14 20:30N 51°20' E 001°53'815.3
2018-Apr-14 20:01N 51°25' E 002°03'815.7
2018-Apr-14 19:30N 51°21' E 002°14'916.9
2018-Apr-14 19:00N 51°22' E 002°28'817.1
2018-Apr-14 18:30N 51°22' E 002°42'713.6
2018-Apr-14 18:00N 51°22' E 002°52'816.0
2018-Apr-14 17:30N 51°24' E 003°05'816.8
2018-Apr-14 17:00N 51°24' E 003°18'917.1
2018-Apr-14 16:30N 51°25' E 003°32'612.1
2018-Apr-14 16:00N 51°26' E 003°42'714.1
2018-Apr-14 15:30N 51°21' E 003°50'713.7
2018-Apr-14 15:00N 51°25' E 003°58'5 9.1
2018-Apr-14 14:30N 51°23' E 004°04'611.4
2018-Apr-14 14:00N 51°24' E 004°13'5 9.9
2018-Apr-14 13:30N 51°19' E 004°16'3 5.3
2018-Apr-14 13:00N 51°17' E 004°15'0 0.1
2018-Apr-14 12:29N 51°17' E 004°15'0 0.2
2018-Apr-14 11:59N 51°17' E 004°15'1 2.2
2018-Apr-14 11:29N 51°16' E 004°13'0 0.0
2018-Apr-14 10:59N 51°16' E 004°13'0 0.0
2018-Apr-14 10:26N 51°16' E 004°13'0 0.0
2018-Apr-14 09:59N 51°16' E 004°13'0 0.0
2018-Apr-14 09:29N 51°16' E 004°13'0 0.0
2018-Apr-14 08:56N 51°16' E 004°13'0 0.0
2018-Apr-14 08:29N 51°16' E 004°13'0 0.0
2018-Apr-14 07:59N 51°16' E 004°13'0 0.0
2018-Apr-14 07:29N 51°16' E 004°13'0 0.0
2018-Apr-14 06:59N 51°16' E 004°13'0 0.0
2018-Apr-14 06:29N 51°16' E 004°13'0 0.0
2018-Apr-14 05:59N 51°16' E 004°13'0 0.0
2018-Apr-14 05:26N 51°16' E 004°13'0 0.0
2018-Apr-14 04:59N 51°16' E 004°13'0 0.0
2018-Apr-14 04:29N 51°16' E 004°13'0 0.0
2018-Apr-14 03:59N 51°16' E 004°13'0 0.0
2018-Apr-14 03:29N 51°16' E 004°13'0 0.0
2018-Apr-14 02:59N 51°16' E 004°13'0 0.0
2018-Apr-14 02:29N 51°16' E 004°13'0 0.0
2018-Apr-14 01:56N 51°16' E 004°13'0 0.0
2018-Apr-14 01:29N 51°16' E 004°13'0 0.0
2018-Apr-14 00:59N 51°16' E 004°13'0 0.0
2018-Apr-14 00:26N 51°16' E 004°13'0 0.0
2018-Apr-13 23:59N 51°16' E 004°13'0 0.0
2018-Apr-13 23:29N 51°16' E 004°13'0 0.0
2018-Apr-13 22:59N 51°16' E 004°13'0 0.0
2018-Apr-13 22:29N 51°16' E 004°13'0 0.0
2018-Apr-13 21:59N 51°16' E 004°13'0 0.0
2018-Apr-13 21:29N 51°16' E 004°13'0 0.0
2018-Apr-13 20:59N 51°16' E 004°13'0 0.0
2018-Apr-13 20:26N 51°16' E 004°13'0 0.0
2018-Apr-13 19:59N 51°16' E 004°13'0 0.0
2018-Apr-13 19:29N 51°16' E 004°13'0 0.0
2018-Apr-13 18:59N 51°16' E 004°13'0 0.0
2018-Apr-13 18:29N 51°16' E 004°13'0 0.0
2018-Apr-13 17:59N 51°16' E 004°13'0 0.0
2018-Apr-13 17:29N 51°16' E 004°13'0 0.0
2018-Apr-13 16:59N 51°16' E 004°13'0 0.0
2018-Apr-13 16:26N 51°16' E 004°13'0 0.0
2018-Apr-13 15:59N 51°16' E 004°13'0 0.0
2018-Apr-13 15:29N 51°16' E 004°13'0 0.0
2018-Apr-13 14:56N 51°16' E 004°13'0 0.0
2018-Apr-13 14:26N 51°16' E 004°13'0 0.0
2018-Apr-13 13:59N 51°16' E 004°13'0 0.0
2018-Apr-13 13:29N 51°16' E 004°13'0 0.0
2018-Apr-13 12:59N 51°16' E 004°13'0 0.0
2018-Apr-13 12:29N 51°16' E 004°13'0 0.0
2018-Apr-13 11:59N 51°16' E 004°13'0 0.0
2018-Apr-13 11:26N 51°16' E 004°13'0 0.0
2018-Apr-13 10:59N 51°16' E 004°13'0 0.0
2018-Apr-13 10:26N 51°16' E 004°13'0 0.0
2018-Apr-13 09:59N 51°16' E 004°13'0 0.0
2018-Apr-13 09:29N 51°16' E 004°13'0 0.0
2018-Apr-13 08:59N 51°16' E 004°13'0 0.0
2018-Apr-13 08:29N 51°16' E 004°13'0 0.0
2018-Apr-13 07:56N 51°16' E 004°13'0 0.0
2018-Apr-13 07:29N 51°16' E 004°13'0 0.0
2018-Apr-13 06:56N 51°16' E 004°13'0 0.0
2018-Apr-13 06:29N 51°16' E 004°13'0 0.0
2018-Apr-13 05:59N 51°16' E 004°13'0 0.0
2018-Apr-13 05:29N 51°16' E 004°13'0 0.0
2018-Apr-13 04:59N 51°16' E 004°13'0 0.0
2018-Apr-13 04:29N 51°16' E 004°13'0 0.0
2018-Apr-13 03:59N 51°16' E 004°13'0 0.0
2018-Apr-13 03:26N 51°16' E 004°13'0 0.0
2018-Apr-13 02:59N 51°16' E 004°13'0 0.0
2018-Apr-13 02:29N 51°16' E 004°13'0 0.0
2018-Apr-13 01:59N 51°16' E 004°13'0 0.0
2018-Apr-13 01:29N 51°16' E 004°13'0 0.0
2018-Apr-13 00:59N 51°16' E 004°13'0 0.0
2018-Apr-13 00:29N 51°16' E 004°13'0 0.0
2018-Apr-12 23:59N 51°16' E 004°13'0 0.0
2018-Apr-12 23:29N 51°16' E 004°13'0 0.0
2018-Apr-12 22:59N 51°16' E 004°13'0 0.0
2018-Apr-12 22:29N 51°16' E 004°13'0 0.0
2018-Apr-12 21:59N 51°16' E 004°13'0 0.0
2018-Apr-12 21:29N 51°16' E 004°13'0 0.0
2018-Apr-12 20:59N 51°16' E 004°13'0 0.0
2018-Apr-12 20:29N 51°16' E 004°13'0 0.0
2018-Apr-12 19:59N 51°16' E 004°13'0 0.0
2018-Apr-12 19:26N 51°16' E 004°13'0 0.0
2018-Apr-12 18:59N 51°16' E 004°13'0 0.0
2018-Apr-12 18:29N 51°16' E 004°13'0 0.0
2018-Apr-12 17:59N 51°16' E 004°13'0 0.0
2018-Apr-12 17:29N 51°16' E 004°13'0 0.0
2018-Apr-12 16:59N 51°16' E 004°13'0 0.0
2018-Apr-12 16:29N 51°16' E 004°13'0 0.0
2018-Apr-12 15:59N 51°16' E 004°13'0 0.0
2018-Apr-12 15:29N 51°16' E 004°13'0 0.0
2018-Apr-12 14:56N 51°16' E 004°13'0 0.0
2018-Apr-12 14:29N 51°16' E 004°13'0 0.0
2018-Apr-12 13:59N 51°16' E 004°13'0 0.0
2018-Apr-12 13:29N 51°16' E 004°13'0 0.0
2018-Apr-12 12:59N 51°16' E 004°13'0 0.0
2018-Apr-12 12:29N 51°16' E 004°13'0 0.0
2018-Apr-12 11:59N 51°16' E 004°13'0 0.0
2018-Apr-12 11:29N 51°16' E 004°13'0 0.0
2018-Apr-12 10:59N 51°16' E 004°13'0 0.0
2018-Apr-12 10:26N 51°16' E 004°13'0 0.0
2018-Apr-12 09:59N 51°16' E 004°13'0 0.0
2018-Apr-12 09:29N 51°16' E 004°13'0 0.0
2018-Apr-12 08:59N 51°16' E 004°13'0 0.0
2018-Apr-12 08:29N 51°16' E 004°13'0 0.0
2018-Apr-12 07:59N 51°16' E 004°13'0 0.0
2018-Apr-12 07:29N 51°16' E 004°13'0 0.0
2018-Apr-12 06:59N 51°16' E 004°13'0 0.0
2018-Apr-12 06:29N 51°16' E 004°13'0 0.0
2018-Apr-12 05:59N 51°16' E 004°13'0 0.0
2018-Apr-12 05:30N 51°16' E 004°13'1 1.6
2018-Apr-12 05:00N 51°16' E 004°14'0 0.6
2018-Apr-12 04:30N 51°17' E 004°15'0 0.0
2018-Apr-12 04:00N 51°17' E 004°15'0 0.0
2018-Apr-12 03:30N 51°17' E 004°15'0 0.7
2018-Apr-12 03:00N 51°17' E 004°15'3 5.6
2018-Apr-12 02:30N 51°20' E 004°16'510.3
2018-Apr-12 02:00N 51°24' E 004°11'511.0
2018-Apr-12 01:30N 51°23' E 004°02'3 6.5
2018-Apr-12 01:00N 51°24' E 003°57'612.2
2018-Apr-12 00:31N 51°21' E 003°49'612.0
2018-Apr-12 00:00N 51°25' E 003°42'5 8.9
2018-Apr-11 23:30N 51°26' E 003°35'714.3
2018-Apr-11 23:01N 51°25' E 003°24'815.9
2018-Apr-11 22:30N 51°24' E 003°11'714.5
2018-Apr-11 22:01N 51°26' E 002°60'713.4
2018-Apr-11 21:30N 51°31' E 003°05'714.2
2018-Apr-11 21:00N 51°38' E 003°11'713.4
2018-Apr-11 20:30N 51°44' E 003°13'6 6.2
2018-Apr-11 19:33N 51°50' E 003°12'0 1.7
2018-Apr-11 19:31N 51°50' E 003°12'1 1.3
2018-Apr-11 18:51N 51°50' E 003°13'0 0.4
2018-Apr-11 18:30N 51°50' E 003°13'1 1.3
2018-Apr-11 17:53N 51°50' E 003°13'1 2.2
2018-Apr-11 17:15N 51°51' E 003°14'2 6.4
2018-Apr-11 17:00N 51°52' E 003°16'3 6.5
2018-Apr-11 16:29N 51°55' E 003°18'4 6.3
2018-Apr-11 15:50N 51°59' E 003°20'7 7.2
2018-Apr-11 14:49N 52°06' E 003°22'  

Dump ship's entire track history